Time;durP1;ratioP1;P1;durP2;ratioP2;P2;SDS_P1;SDS_P2;PMS_P1;PMS_P2;Temp;Humidity;BMP_temperature;BMP_pressure;BME280_temperature;BME280_humidity;BME280_pressure;Samples;Min_cycle;Max_cycle;Signal;HPM_P1;HPM_P2
2023/10/21 00:01:09;;;;;;;1.00;0.90;;;13.80;99.90;;;;;;5033824;28;20211;-65
2023/10/21 00:03:38;;;;;;;1.30;1.20;;;13.70;99.90;;;;;;5033583;28;20247;-65
2023/10/21 00:06:06;;;;;;;1.20;1.10;;;13.60;99.90;;;;;;5033863;28;20209;-63
2023/10/21 00:08:34;;;;;;;2.78;1.15;;;13.60;99.90;;;;;;5033074;28;20240;-65
2023/10/21 00:11:03;;;;;;;1.20;1.10;;;13.60;99.90;;;;;;5033837;28;20686;-65
2023/10/21 00:13:31;;;;;;;1.25;1.05;;;13.60;99.90;;;;;;5033288;28;20299;-64
2023/10/21 00:15:59;;;;;;;1.23;1.13;;;13.70;99.90;;;;;;5033702;28;20617;-65
2023/10/21 00:18:27;;;;;;;1.20;1.10;;;13.70;99.90;;;;;;5033355;28;20706;-65
2023/10/21 00:20:57;;;;;;;1.23;0.90;;;13.80;99.90;;;;;;5025702;28;20200;-65
2023/10/21 00:23:25;;;;;;;1.40;1.30;;;13.80;99.90;;;;;;5033435;28;20208;-65
2023/10/21 00:25:53;;;;;;;0.80;0.75;;;13.90;99.90;;;;;;5033331;28;20576;-65
2023/10/21 00:28:21;;;;;;;1.13;1.02;;;13.90;99.90;;;;;;5033147;28;20231;-65
2023/10/21 00:30:49;;;;;;;1.20;1.10;;;13.90;99.90;;;;;;5037407;28;20204;-65
2023/10/21 00:33:17;;;;;;;1.45;1.15;;;13.90;99.90;;;;;;5033319;28;20220;-65
2023/10/21 00:35:46;;;;;;;1.65;1.05;;;13.90;99.90;;;;;;5032776;28;20223;-65
2023/10/21 00:38:15;;;;;;;1.30;1.20;;;13.90;99.90;;;;;;5032918;28;20294;-65
2023/10/21 00:40:50;;;;;;;1.00;0.90;;;13.90;99.90;;;;;;5032873;28;20212;-65
2023/10/21 00:43:34;;;;;;;0.88;0.80;;;14.00;99.90;;;;;;5033140;28;20212;-65
2023/10/21 00:46:06;;;;;;;1.13;1.02;;;14.00;99.90;;;;;;5032950;28;20284;-65
2023/10/21 00:48:35;;;;;;;1.40;0.90;;;14.00;99.90;;;;;;5032578;28;20715;-65
2023/10/21 00:51:03;;;;;;;1.20;0.98;;;14.10;99.90;;;;;;5033017;28;20216;-65
2023/10/21 00:53:33;;;;;;;1.25;0.85;;;14.00;99.90;;;;;;5032189;28;20212;-64
2023/10/21 00:56:01;;;;;;;1.45;0.90;;;14.00;99.90;;;;;;5032787;28;20231;-65
2023/10/21 00:58:31;;;;;;;1.10;0.85;;;14.10;99.90;;;;;;5032368;28;20225;-65
2023/10/21 01:01:01;;;;;;;0.80;0.80;;;14.10;99.90;;;;;;5033022;28;20213;-65
2023/10/21 01:03:31;;;;;;;1.08;0.88;;;14.10;99.90;;;;;;5032800;28;20560;-65
2023/10/21 01:05:59;;;;;;;0.70;0.63;;;14.10;99.90;;;;;;5024798;28;20197;-65
2023/10/21 01:08:27;;;;;;;0.80;0.70;;;14.00;99.90;;;;;;5032457;28;20691;-65
2023/10/21 01:10:58;;;;;;;0.75;0.70;;;13.90;99.90;;;;;;5032285;28;20608;-65
2023/10/21 01:13:26;;;;;;;0.80;0.70;;;13.90;99.90;;;;;;5032858;28;20213;-65
2023/10/21 01:15:55;;;;;;;0.70;0.70;;;13.90;99.90;;;;;;5032367;28;20216;-65
2023/10/21 01:18:25;;;;;;;0.73;0.65;;;13.90;99.90;;;;;;5032276;28;20358;-64
2023/10/21 01:20:53;;;;;;;0.90;0.70;;;13.80;99.90;;;;;;5032149;28;20208;-64
2023/10/21 01:23:22;;;;;;;0.77;0.77;;;13.70;99.90;;;;;;5024207;28;20208;-64
2023/10/21 01:25:50;;;;;;;1.02;0.60;;;13.70;99.90;;;;;;5032068;28;20284;-64
2023/10/21 01:28:18;;;;;;;0.63;0.50;;;13.70;99.90;;;;;;5032000;28;20290;-64
2023/10/21 01:30:46;;;;;;;0.70;0.60;;;13.70;99.90;;;;;;5031955;28;20216;-65
2023/10/21 01:33:14;;;;;;;7.53;0.70;;;13.70;99.90;;;;;;5032116;28;20755;-65
2023/10/21 01:35:43;;;;;;;1.65;0.80;;;13.70;99.90;;;;;;5023643;28;20248;-66
2023/10/21 01:38:11;;;;;;;0.60;0.40;;;13.70;99.90;;;;;;5031696;28;20246;-64
2023/10/21 01:40:41;;;;;;;0.70;0.60;;;13.70;99.90;;;;;;5031548;28;20553;-64
2023/10/21 01:43:08;;;;;;;1.20;0.60;;;13.80;99.90;;;;;;5031950;28;20235;-66
2023/10/21 01:45:37;;;;;;;0.95;0.65;;;13.80;99.90;;;;;;5031727;28;20862;-63
2023/10/21 01:48:08;;;;;;;0.70;0.68;;;13.80;99.90;;;;;;5031767;28;20235;-64
2023/10/21 01:50:36;;;;;;;1.13;0.73;;;13.80;99.90;;;;;;5031375;28;20590;-63
2023/10/21 01:53:05;;;;;;;0.60;0.50;;;13.80;99.90;;;;;;5031618;28;20672;-65
2023/10/21 01:55:33;;;;;;;0.50;0.50;;;13.80;99.90;;;;;;5031589;28;20236;-64
2023/10/21 01:58:03;;;;;;;0.50;0.40;;;13.80;99.90;;;;;;5031282;28;20220;-66
2023/10/21 02:00:31;;;;;;;0.70;0.50;;;13.80;99.90;;;;;;5031450;28;20721;-64
2023/10/21 02:02:59;;;;;;;0.52;0.50;;;13.80;99.90;;;;;;5031164;28;20185;-64
2023/10/21 02:05:27;;;;;;;0.50;0.40;;;13.80;99.90;;;;;;5030870;28;20205;-64
2023/10/21 02:07:55;;;;;;;1.00;0.60;;;13.80;99.90;;;;;;5031135;28;20271;-63
2023/10/21 02:10:23;;;;;;;0.80;0.60;;;13.80;99.90;;;;;;5031391;28;20189;-64
2023/10/21 02:12:51;;;;;;;0.60;0.50;;;13.80;99.90;;;;;;5031633;28;19975;-65
2023/10/21 02:15:20;;;;;;;0.50;0.40;;;13.80;99.90;;;;;;5031309;28;20212;-65
2023/10/21 02:17:48;;;;;;;0.80;0.52;;;13.70;99.90;;;;;;5030953;28;20229;-67
2023/10/21 02:20:16;;;;;;;;;;;13.70;99.90;;;;;;5031784;28;20072;-66
2023/10/21 02:22:44;;;;;;;;;;;13.80;99.90;;;;;;5031592;28;19963;-65
2023/10/21 02:25:13;;;;;;;;;;;13.70;99.90;;;;;;5031668;28;20425;-65
2023/10/21 02:27:43;;;;;;;;;;;13.70;99.90;;;;;;5031491;28;19963;-66
2023/10/21 02:30:12;;;;;;;;;;;13.70;99.90;;;;;;5031527;28;19967;-66
2023/10/21 02:32:44;;;;;;;;;;;13.70;99.90;;;;;;5031737;28;19963;-67
2023/10/21 02:35:12;;;;;;;;;;;13.70;99.90;;;;;;5031883;28;19971;-66
2023/10/21 02:37:40;;;;;;;;;;;13.70;99.90;;;;;;5031288;28;19971;-65
2023/10/21 02:40:08;;;;;;;;;;;13.70;99.90;;;;;;5023586;28;19963;-65
2023/10/21 02:42:37;;;;;;;;;;;13.70;99.90;;;;;;5031386;28;19967;-65
2023/10/21 02:45:06;;;;;;;;;;;13.70;99.90;;;;;;5031165;28;19963;-65
2023/10/21 02:47:34;;;;;;;;;;;13.70;99.90;;;;;;5031520;28;19971;-65
2023/10/21 02:50:03;;;;;;;;;;;13.80;99.90;;;;;;5031095;28;20016;-64
2023/10/21 02:52:31;;;;;;;;;;;13.80;99.90;;;;;;5030910;28;20430;-65
2023/10/21 02:54:58;;;;;;;;;;;13.90;99.90;;;;;;5030821;28;19959;-64
2023/10/21 02:57:26;;;;;;;;;;;13.90;99.90;;;;;;5031230;28;19966;-64
2023/10/21 02:59:54;;;;;;;;;;;13.90;99.90;;;;;;5030943;28;19959;-65
2023/10/21 03:02:22;;;;;;;;;;;13.90;99.90;;;;;;5031243;28;19959;-64
2023/10/21 03:04:50;;;;;;;;;;;13.90;99.90;;;;;;5031284;28;19991;-63
2023/10/21 03:07:19;;;;;;;;;;;13.90;99.90;;;;;;5031034;28;19967;-64
2023/10/21 03:09:47;;;;;;;;;;;13.90;99.90;;;;;;5030741;28;20029;-64
2023/10/21 03:12:15;;;;;;;;;;;14.00;99.90;;;;;;5031377;28;19963;-64
2023/10/21 03:14:42;;;;;;;;;;;14.10;99.90;;;;;;5031148;28;19959;-64
2023/10/21 03:17:10;;;;;;;;;;;14.10;99.90;;;;;;5031735;28;19965;-65
2023/10/21 03:19:38;;;;;;;;;;;14.10;99.90;;;;;;5035119;28;19959;-65
2023/10/21 03:22:06;;;;;;;;;;;14.10;99.90;;;;;;5034795;28;19967;-65
2023/10/21 03:24:35;;;;;;;;;;;14.10;99.90;;;;;;5035042;28;20037;-65
2023/10/21 03:27:03;;;;;;;;;;;14.10;99.90;;;;;;5034835;28;19963;-65
2023/10/21 03:29:31;;;;;;;;;;;14.10;99.90;;;;;;5034786;28;20053;-65
2023/10/21 03:31:59;;;;;;;;;;;14.10;99.90;;;;;;5035010;28;19963;-65
2023/10/21 03:34:27;;;;;;;;;;;14.00;99.90;;;;;;5034951;28;20066;-65
2023/10/21 03:36:55;;;;;;;;;;;14.00;99.90;;;;;;5034516;28;20004;-65
2023/10/21 03:39:22;;;;;;;;;;;13.90;99.90;;;;;;5036196;28;19959;-66
2023/10/21 03:41:52;;;;;;;;;;;13.90;99.90;;;;;;5034409;28;19990;-63
2023/10/21 03:44:19;;;;;;;;;;;13.90;99.90;;;;;;5034701;28;19966;-64
2023/10/21 03:46:47;;;;;;;;;;;13.90;99.90;;;;;;5034801;28;20006;-65
2023/10/21 03:49:16;;;;;;;;;;;13.90;99.90;;;;;;5034464;28;20036;-66
2023/10/21 03:51:43;;;;;;;;;;;13.80;99.90;;;;;;5034707;28;19967;-65
2023/10/21 03:54:11;;;;;;;;;;;13.80;99.90;;;;;;5034298;28;19963;-64
2023/10/21 03:56:39;;;;;;;;;;;13.80;99.90;;;;;;5034607;28;19970;-65
2023/10/21 03:59:08;;;;;;;;;;;13.80;99.90;;;;;;5034034;28;19963;-65
2023/10/21 04:01:36;;;;;;;;;;;13.90;99.90;;;;;;5029524;28;20010;-66
2023/10/21 04:04:04;;;;;;;;;;;13.90;99.90;;;;;;5034083;28;20218;-65
2023/10/21 04:06:32;;;;;;;;;;;13.90;99.90;;;;;;5034401;28;19959;-65
2023/10/21 04:09:00;;;;;;;;;;;13.80;99.90;;;;;;5033804;28;19998;-65
2023/10/21 04:11:28;;;;;;;;;;;13.90;99.90;;;;;;5034316;28;19959;-65
2023/10/21 04:13:56;;;;;;;;;;;13.80;99.90;;;;;;5033983;28;19959;-65
2023/10/21 04:16:25;;;;;;;;;;;13.80;99.90;;;;;;5033936;28;19963;-64
2023/10/21 04:18:53;;;;;;;;;;;13.80;99.90;;;;;;5033686;28;19959;-66
2023/10/21 04:21:21;;;;;;;;;;;13.80;99.90;;;;;;5034120;28;20009;-64
2023/10/21 04:23:48;;;;;;;;;;;13.80;99.90;;;;;;5034031;28;20140;-65
2023/10/21 04:26:16;;;;;;;;;;;13.90;99.90;;;;;;5033973;28;19959;-65
2023/10/21 04:28:49;;;;;;;;;;;13.90;99.90;;;;;;5032660;28;20448;-65
2023/10/21 04:31:16;;;;;;;;;;;13.90;99.90;;;;;;5025923;28;20441;-65
2023/10/21 04:33:46;;;;;;;;;;;13.90;99.90;;;;;;5033817;28;19959;-65
2023/10/21 04:36:18;;;;;;;;;;;13.80;99.90;;;;;;5033323;28;19959;-66
2023/10/21 04:38:46;;;;;;;;;;;13.80;99.90;;;;;;5033527;28;19966;-66
2023/10/21 04:41:13;;;;;;;;;;;13.80;99.90;;;;;;5033546;28;19959;-65
2023/10/21 04:43:41;;;;;;;;;;;13.80;99.90;;;;;;5027669;28;20334;-66
2023/10/21 04:46:09;;;;;;;;;;;13.80;99.90;;;;;;5020880;28;19964;-65
2023/10/21 04:48:37;;;;;;;;;;;13.80;99.90;;;;;;5025032;28;19974;-66
2023/10/21 04:51:06;;;;;;;;;;;13.80;99.90;;;;;;5023044;28;19970;-66
2023/10/21 04:53:34;;;;;;;;;;;13.80;99.90;;;;;;5028596;28;20328;-65
2023/10/21 04:56:03;;;;;;;;;;;13.70;99.90;;;;;;5024874;28;19968;-65
2023/10/21 04:58:30;;;;;;;;;;;13.70;99.90;;;;;;5022633;28;19966;-65
2023/10/21 05:00:58;;;;;;;;;;;13.70;99.90;;;;;;5018229;28;19960;-66
2023/10/21 05:03:26;;;;;;;;;;;13.70;99.90;;;;;;5027400;28;20037;-66
2023/10/21 05:05:54;;;;;;;;;;;13.70;99.90;;;;;;5027460;28;19959;-65
2023/10/21 05:08:23;;;;;;;;;;;13.60;99.90;;;;;;5028488;28;19959;-65
2023/10/21 05:10:51;;;;;;;;;;;13.70;99.90;;;;;;5031381;28;19963;-65
2023/10/21 05:13:19;;;;;;;;;;;13.70;99.90;;;;;;5025687;28;20025;-66
2023/10/21 05:15:46;;;;;;;;;;;13.70;99.90;;;;;;5026872;28;20322;-66
2023/10/21 05:18:14;;;;;;;;;;;13.60;99.90;;;;;;5028633;28;19959;-66
2023/10/21 05:20:42;;;;;;;;;;;13.60;99.90;;;;;;5022764;28;19967;-66
2023/10/21 05:23:10;;;;;;;;;;;13.60;99.90;;;;;;5023258;28;19963;-67
2023/10/21 05:25:40;;;;;;;;;;;13.50;99.90;;;;;;5027547;28;19959;-66
2023/10/21 05:28:08;;;;;;;;;;;13.50;99.90;;;;;;5028739;28;20334;-66
2023/10/21 05:30:35;;;;;;;;;;;13.50;99.90;;;;;;5026051;28;19990;-65
2023/10/21 05:33:04;;;;;;;;;;;13.50;99.90;;;;;;5027304;28;19970;-66
2023/10/21 05:35:36;;;;;;;;;;;13.40;99.90;;;;;;5023175;28;20441;-66
2023/10/21 05:38:04;;;;;;;;;;;13.50;99.90;;;;;;5024696;28;20017;-66
2023/10/21 05:40:31;;;;;;;;;;;13.50;99.90;;;;;;5025257;28;19959;-65
2023/10/21 05:43:00;;;;;;;;;;;13.50;99.90;;;;;;5028477;28;19970;-65
2023/10/21 05:45:29;;;;;;;;;;;13.50;99.90;;;;;;5030184;28;19959;-65
2023/10/21 05:47:57;;;;;;;;;;;13.50;99.90;;;;;;5025907;28;19964;-65
2023/10/21 05:50:25;;;;;;;;;;;13.50;99.90;;;;;;5022819;28;19963;-66
2023/10/21 05:52:53;;;;;;;;;;;13.50;99.90;;;;;;5027215;28;19959;-65
2023/10/21 05:55:20;;;;;;;;;;;13.40;99.90;;;;;;5022100;28;20013;-66
2023/10/21 05:57:48;;;;;;;;;;;13.40;99.90;;;;;;5026601;28;19959;-66
2023/10/21 06:00:18;;;;;;;;;;;13.40;99.90;;;;;;5025970;28;20017;-67
2023/10/21 06:02:45;;;;;;;;;;;13.30;99.90;;;;;;5024657;28;20372;-65
2023/10/21 06:05:14;;;;;;;;;;;13.40;99.90;;;;;;5026907;28;19963;-65
2023/10/21 06:07:42;;;;;;;;;;;13.40;99.90;;;;;;5027606;28;20480;-65
2023/10/21 06:10:10;;;;;;;;;;;13.40;99.90;;;;;;5026741;28;20010;-65
2023/10/21 06:12:39;;;;;;;;;;;13.40;99.90;;;;;;5027288;28;20422;-65
2023/10/21 06:15:07;;;;;;;;;;;13.50;99.90;;;;;;5027015;28;19966;-65
2023/10/21 06:17:37;;;;;;;;;;;13.50;99.90;;;;;;5021992;28;19963;-65
2023/10/21 06:20:05;;;;;;;;;;;13.50;99.90;;;;;;5021783;28;19963;-65
2023/10/21 06:22:33;;;;;;;;;;;13.50;99.90;;;;;;5027249;28;20005;-64
2023/10/21 06:25:01;;;;;;;;;;;13.50;99.90;;;;;;5020180;28;19960;-65
2023/10/21 06:27:29;;;;;;;;;;;13.40;99.90;;;;;;5025568;28;19967;-64
2023/10/21 06:29:56;;;;;;;;;;;13.40;99.90;;;;;;5026052;28;20623;-65
2023/10/21 06:32:24;;;;;;;;;;;13.40;99.90;;;;;;5021798;28;20430;-65
2023/10/21 06:34:53;;;;;;;;;;;13.40;99.90;;;;;;5023561;28;19959;-65
2023/10/21 06:37:21;;;;;;;;;;;13.40;99.90;;;;;;5030045;28;19963;-65
2023/10/21 06:39:49;;;;;;;;;;;13.50;99.90;;;;;;5023284;28;19994;-65
2023/10/21 06:42:17;;;;;;;;;;;13.50;99.90;;;;;;5031080;28;19963;-65
2023/10/21 06:44:45;;;;;;;;;;;13.60;99.90;;;;;;5025630;28;19963;-67
2023/10/21 06:47:13;;;;;;;;;;;13.60;99.90;;;;;;5021151;28;19964;-65
2023/10/21 06:49:41;;;;;;;;;;;13.60;99.90;;;;;;5024533;28;19959;-65
2023/10/21 06:52:10;;;;;;;;;;;13.70;99.90;;;;;;5027776;28;20310;-65
2023/10/21 06:54:38;;;;;;;;;;;13.70;99.90;;;;;;5025259;28;20366;-65
2023/10/21 06:57:06;;;;;;;;;;;13.70;99.90;;;;;;5021907;28;19963;-64
2023/10/21 06:59:34;;;;;;;;;;;13.80;99.90;;;;;;5025578;28;19959;-65
2023/10/21 07:02:02;;;;;;;;;;;13.80;99.90;;;;;;5025396;28;20009;-63
2023/10/21 07:04:31;;;;;;;;;;;13.80;99.90;;;;;;5021608;28;19959;-64
2023/10/21 07:06:58;;;;;;;;;;;13.90;99.90;;;;;;5023870;28;20029;-63
2023/10/21 07:09:29;;;;;;;;;;;14.00;99.90;;;;;;5021856;28;19960;-65
2023/10/21 07:11:57;;;;;;;;;;;14.00;99.90;;;;;;5022029;28;19960;-65
2023/10/21 07:14:25;;;;;;;;;;;14.10;99.90;;;;;;5024294;28;20010;-66
2023/10/21 07:16:53;;;;;;;;;;;14.20;99.90;;;;;;5026786;28;20013;-67
2023/10/21 07:19:21;;;;;;;;;;;14.20;99.90;;;;;;5026315;28;19963;-67
2023/10/21 07:21:49;;;;;;;;;;;14.30;99.90;;;;;;5030712;28;19959;-65
2023/10/21 07:24:17;;;;;;;;;;;14.40;99.90;;;;;;5030728;28;19963;-65
2023/10/21 07:26:46;;;;;;;;;;;14.50;99.90;;;;;;5031052;28;19959;-65
2023/10/21 07:29:14;;;;;;;;;;;14.70;99.90;;;;;;5030870;28;20388;-65
2023/10/21 07:31:43;;;;;;;;;;;14.70;99.90;;;;;;5030952;28;19970;-65
2023/10/21 07:34:11;;;;;;;;;;;14.70;99.90;;;;;;5030531;28;19967;-66
2023/10/21 07:36:39;;;;;;;;;;;14.70;99.90;;;;;;5030469;28;19967;-64
2023/10/21 07:39:07;;;;;;;;;;;14.70;99.90;;;;;;5030167;28;20014;-67
2023/10/21 07:41:35;;;;;;;;;;;14.70;99.90;;;;;;5030862;28;19963;-64
2023/10/21 07:44:04;;;;;;;;;;;14.70;99.90;;;;;;5030816;28;19974;-65
2023/10/21 07:46:33;;;;;;;;;;;14.60;99.90;;;;;;5026803;28;20367;-65
2023/10/21 07:49:01;;;;;;;;;;;14.60;99.90;;;;;;5022842;28;19982;-63
2023/10/21 07:51:29;;;;;;;;;;;14.60;99.90;;;;;;5028377;28;19971;-64
2023/10/21 07:53:57;;;;;;;;;;;14.50;99.90;;;;;;5027552;28;20046;-63
2023/10/21 07:56:25;;;;;;;;;;;14.40;99.90;;;;;;5019029;28;19966;-64
2023/10/21 07:58:52;;;;;;;;;;;14.30;99.90;;;;;;5025107;28;19966;-65
2023/10/21 08:01:22;;;;;;;;;;;14.30;99.90;;;;;;5022841;28;19963;-65
2023/10/21 08:03:49;;;;;;;;;;;14.20;99.90;;;;;;5028140;28;19959;-64
2023/10/21 08:06:17;;;;;;;;;;;14.10;99.90;;;;;;5026017;28;19960;-64
2023/10/21 08:08:45;;;;;;;;;;;14.20;99.90;;;;;;5030747;28;19965;-64
2023/10/21 08:11:13;;;;;;;;;;;14.20;99.90;;;;;;5023887;28;20033;-63
2023/10/21 08:13:41;;;;;;;;;;;14.30;99.90;;;;;;5021387;28;19985;-64
2023/10/21 08:16:08;;;;;;;;;;;14.40;99.90;;;;;;5028722;28;19970;-64
2023/10/21 08:18:38;;;;;;;;;;;14.80;99.90;;;;;;5026421;28;20419;-64
2023/10/21 08:21:06;;;;;;;;;;;15.10;99.90;;;;;;5022274;28;19969;-64
2023/10/21 08:23:34;;;;;;;;;;;15.40;99.90;;;;;;5029694;28;20501;-64
2023/10/21 08:26:02;;;;;;;;;;;15.70;99.90;;;;;;5026464;28;20178;-64
2023/10/21 08:28:30;;;;;;;;;;;16.00;99.90;;;;;;5026846;28;19965;-64
2023/10/21 08:30:58;;;;;;;;;;;15.90;99.90;;;;;;5028429;28;19963;-65
2023/10/21 08:33:25;;;;;;;;;;;15.70;99.90;;;;;;5025991;28;20034;-64
2023/10/21 08:35:55;;;;;;;;;;;15.60;99.90;;;;;;5027198;28;19966;-64
2023/10/21 08:38:23;;;;;;;;;;;15.60;99.90;;;;;;5027340;28;19974;-64
2023/10/21 08:40:50;;;;;;;;;;;15.40;99.90;;;;;;5030832;28;20013;-64
2023/10/21 08:43:18;;;;;;;;;;;15.20;99.90;;;;;;5029926;28;19967;-64
2023/10/21 08:45:46;;;;;;;;;;;15.00;99.90;;;;;;5029352;28;20017;-64
2023/10/21 08:48:16;;;;;;;;;;;14.90;99.90;;;;;;5021273;28;19968;-65
2023/10/21 08:50:48;;;;;;;;;;;14.80;99.90;;;;;;5025983;28;19959;-64
2023/10/21 08:53:17;;;;;;;;;;;14.80;99.90;;;;;;5024217;28;20430;-63
2023/10/21 08:55:45;;;;;;;;;;;14.90;99.90;;;;;;5025710;28;19959;-65
2023/10/21 08:58:13;;;;;;;;;;;15.30;99.90;;;;;;5027362;28;19967;-65
2023/10/21 09:00:41;;;;;;;;;;;15.70;99.90;;;;;;5020981;28;19969;-68
2023/10/21 09:03:09;;;;;;;;;;;16.10;99.90;;;;;;5024996;28;20492;-65
2023/10/21 09:06:01;;;;;;;;;;;16.40;99.90;;;;;;5023155;28;19963;-66
2023/10/21 09:08:32;;;;;;;;;;;16.60;99.90;;;;;;5026033;28;19963;-66
2023/10/21 09:11:00;;;;;;;;;;;16.40;99.90;;;;;;5032618;28;20014;-68
2023/10/21 09:13:29;;;;;;;;;;;16.10;99.90;;;;;;5032190;28;19971;-66
2023/10/21 09:15:58;;;;;;;;;;;15.80;99.90;;;;;;5032415;28;20017;-65
2023/10/21 09:18:26;;;;;;;;;;;15.60;99.90;;;;;;5032320;28;19970;-64
2023/10/21 09:20:53;;;;;;;;;;;15.40;99.90;;;;;;5033020;28;19969;-66
2023/10/21 09:23:21;;;;;;;;;;;15.40;99.90;;;;;;5024540;28;20388;-66
2023/10/21 09:25:51;;;;;;;;;;;15.50;99.90;;;;;;5033175;28;19959;-65
2023/10/21 09:28:22;;;;;;;;;;;15.90;99.90;;;;;;5032502;28;19963;-66
2023/10/21 09:30:57;;;;;;;;;;;16.50;99.90;;;;;;5032852;28;20421;-65
2023/10/21 09:33:26;;;;;;;;;;;16.90;99.90;;;;;;5032452;28;19963;-65
2023/10/21 09:36:01;;;;;;;;;;;17.40;99.90;;;;;;5032770;28;20456;-65
2023/10/21 09:38:50;;;;;;;;;;;17.50;99.90;;;;;;5050934;22;20357;-78
2023/10/21 09:41:20;;;;;;;;;;;17.60;99.90;;;;;;5030072;28;19967;-78
2023/10/21 09:43:51;;;;;;;;;;;17.60;99.90;;;;;;5033925;28;19959;-76
2023/10/21 09:46:20;;;;;;;;;;;17.50;99.90;;;;;;5041135;28;20487;-77
2023/10/21 09:48:50;;;;;;;;;;;17.40;99.90;;;;;;5034731;28;19959;-79
2023/10/21 09:51:18;;;;;;;;;;;17.40;99.90;;;;;;5024868;28;19963;-78
2023/10/21 09:53:48;;;;;;;;;;;17.60;99.90;;;;;;5030171;28;20411;-79
2023/10/21 09:56:17;;;;;;;;;;;17.60;99.90;;;;;;5020873;28;19963;-80
2023/10/21 09:58:46;;;;;;;;;;;17.60;99.90;;;;;;5024166;28;20414;-77
2023/10/21 10:01:18;;;;;;;;;;;17.80;99.90;;;;;;5025176;28;19967;-76
2023/10/21 10:03:46;;;;;;;;;;;18.10;99.90;;;;;;5015972;28;20042;-75
2023/10/21 10:06:14;;;;;;;;;;;18.20;99.90;;;;;;5025255;28;20441;-74
2023/10/21 10:08:41;;;;;;;;;;;18.10;99.90;;;;;;5022955;28;19971;-78
2023/10/21 10:11:12;;;;;;;;;;;18.20;99.90;;;;;;5024294;28;19963;-79
2023/10/21 10:13:43;;;;;;;;;;;18.10;99.90;;;;;;5021395;28;20014;-76
2023/10/21 10:16:22;;;;;;;;;;;18.00;99.90;;;;;;5019039;28;19970;-74
2023/10/21 10:18:51;;;;;;;;;;;18.10;99.90;;;;;;5004614;28;20058;-76
2023/10/21 10:21:20;;;;;;;;;;;18.30;99.90;;;;;;5020127;28;19963;-76
2023/10/21 10:23:48;;;;;;;;;;;18.10;99.90;;;;;;5020592;28;19959;-78
2023/10/21 10:26:17;;;;;;;;;;;17.60;99.90;;;;;;5020151;28;19974;-75
2023/10/21 10:28:47;;;;;;;;;;;17.20;99.90;;;;;;5022870;28;20061;-76
2023/10/21 10:31:14;;;;;;;;;;;16.90;99.90;;;;;;5032234;28;19963;-76
2023/10/21 10:33:50;;;;;;;;;;;17.00;99.90;;;;;;5029276;28;19963;-77
2023/10/21 10:36:26;;;;;;;;;;;17.20;99.90;;;;;;5020598;28;19967;-77
2023/10/21 10:38:55;;;;;;;;;;;17.80;99.90;;;;;;5004289;28;19960;-79
2023/10/21 10:41:23;;;;;;;;;;;17.90;99.90;;;;;;5020202;28;19963;-77
2023/10/21 10:43:52;;;;;;;;;;;17.90;99.90;;;;;;5031698;28;19959;-76
2023/10/21 10:46:20;;;;;;;;;;;18.20;99.90;;;;;;5023668;28;19963;-77
2023/10/21 10:48:50;;;;;;;;;;;18.30;99.90;;;;;;5012077;28;19959;-77
2023/10/21 10:51:19;;;;;;;;;;;18.20;99.90;;;;;;5012165;28;20067;-77
2023/10/21 10:53:48;;;;;;;;;;;18.10;99.90;;;;;;5028081;28;19959;-78
2023/10/21 10:56:18;;;;;;;;;;;17.50;99.90;;;;;;5026856;28;20368;-76
2023/10/21 10:58:47;;;;;;;;;;;17.10;99.90;;;;;;5011749;28;20066;-77
2023/10/21 11:01:19;;;;;;;;;;;16.70;99.90;;;;;;5018302;28;20464;-79
2023/10/21 11:03:55;;;;;;;;;;;16.50;99.90;;;;;;5020268;28;20015;-75
2023/10/21 11:06:26;;;;;;;;;;;16.50;99.90;;;;;;5027613;28;19963;-77
2023/10/21 11:08:56;;;;;;;;;;;16.70;99.90;;;;;;5003789;28;19963;-77
2023/10/21 11:11:24;;;;;;;;;;;17.20;99.90;;;;;;5011702;28;19963;-76
2023/10/21 11:13:55;;;;;;;;;;;17.50;99.90;;;;;;5011952;28;19964;-77
2023/10/21 11:16:23;;;;;;;;;;;17.50;99.90;;;;;;5011979;28;20017;-76
2023/10/21 11:18:52;;;;;;;;;;;17.50;99.90;;;;;;5019214;28;19967;-77
2023/10/21 11:21:34;;;;;;;;;;;17.50;99.90;;;;;;5019910;28;20434;-74
2023/10/21 11:24:02;;;;;;;;;;;17.50;99.90;;;;;;5004708;28;19967;-76
2023/10/21 11:26:30;;;;;;;;;;;17.90;99.90;;;;;;5027870;28;19963;-75
2023/10/21 11:29:00;;;;;;;;;;;17.90;99.90;;;;;;5022866;28;20006;-76
2023/10/21 11:31:29;;;;;;;;;;;17.90;99.90;;;;;;5031099;28;19963;-76
2023/10/21 11:34:05;;;;;;;;;;;17.50;99.90;;;;;;5007660;28;20241;-72
2023/10/21 11:36:35;;;;;;;;;;;17.30;99.90;;;;;;5022339;28;19963;-75
2023/10/21 11:39:04;;;;;;;;;;;17.20;99.90;;;;;;5013116;28;20081;-75
2023/10/21 11:41:32;;;;;;;;;;;17.30;99.90;;;;;;5023180;28;20058;-73
2023/10/21 11:44:04;;;;;;;;;;;17.60;99.90;;;;;;5023559;28;19959;-74
2023/10/21 11:46:32;;;;;;;;;;;17.60;99.90;;;;;;5023556;28;19967;-77
2023/10/21 11:49:00;;;;;;;;;;;17.20;99.90;;;;;;5022623;28;19959;-75
2023/10/21 11:51:29;;;;;;;;;;;17.10;99.90;;;;;;5015171;28;19963;-79
2023/10/21 11:53:58;;;;;;;;;;;17.00;99.90;;;;;;5023167;28;19960;-76
2023/10/21 12:05:46;;;;;;;;;;;17.50;99.90;;;;;;4998973;28;20006;-80
2023/10/21 12:11:14;;;;;;;;;;;18.00;99.90;;;;;;5014708;28;19963;-77
2023/10/21 12:13:55;;;;;;;;;;;17.60;99.90;;;;;;5022706;28;20017;-76
2023/10/21 12:16:33;;;;;;;;;;;17.50;99.90;;;;;;5014507;28;20058;-79
2023/10/21 12:36:07;;;;;;;;;;;16.60;99.90;;;;;;5015075;28;19963;-77
2023/10/21 12:38:38;;;;;;;;;;;16.60;99.90;;;;;;5025375;28;19978;-78
2023/10/21 12:41:25;;;;;;;;;;;16.50;99.90;;;;;;5018521;28;20461;-76
2023/10/21 12:43:55;;;;;;;;;;;16.50;99.90;;;;;;5014857;28;19999;-76
2023/10/21 12:46:25;;;;;;;;;;;16.50;99.90;;;;;;5014205;28;19967;-76
2023/10/21 12:48:52;;;;;;;;;;;16.50;99.90;;;;;;5014144;28;19960;-79
2023/10/21 12:51:21;;;;;;;;;;;16.60;99.90;;;;;;5019885;28;19963;-78
2023/10/21 12:53:49;;;;;;;;;;;16.60;99.90;;;;;;5013721;28;20022;-81
2023/10/21 12:56:27;;;;;;;;;;;16.70;99.90;;;;;;5023058;28;20006;-74
2023/10/21 12:58:56;;;;;;;;;;;16.80;99.90;;;;;;5014171;28;19964;-75
2023/10/21 13:01:26;;;;;;;;;;;17.20;99.90;;;;;;5013408;28;19970;-77
2023/10/21 13:03:56;;;;;;;;;;;17.50;99.90;;;;;;5021329;28;20488;-77
2023/10/21 13:06:24;;;;;;;;;;;17.80;99.90;;;;;;5024925;28;19965;-75
2023/10/21 13:08:52;;;;;;;;;;;18.10;99.90;;;;;;5014325;28;20461;-75
2023/10/21 13:11:20;;;;;;;;;;;18.70;99.90;;;;;;5020526;28;20380;-75
2023/10/21 13:13:50;;;;;;;;;;;18.60;99.90;;;;;;4998521;28;19967;-74
2023/10/21 13:16:19;;;;;;;;;;;18.10;99.90;;;;;;5018533;28;20025;-75
2023/10/21 13:18:47;;;;;;;;;;;17.80;99.90;;;;;;5014947;28;19963;-77
2023/10/21 13:21:17;;;;;;;;;;;17.70;99.90;;;;;;5013165;28;19967;-77
2023/10/21 13:23:45;;;;;;;;;;;17.60;99.90;;;;;;5012940;28;20062;-78
2023/10/21 13:26:13;;;;;;;;;;;17.90;99.90;;;;;;5026068;28;19963;-79
2023/10/21 13:28:40;;;;;;;;;;;18.00;99.90;;;;;;5015937;28;19963;-80
2023/10/21 13:31:08;;;;;;;;;;;18.10;99.90;;;;;;5012771;28;19963;-74
2023/10/21 13:33:38;;;;;;;;;;;18.20;99.90;;;;;;5012080;28;19960;-77
2023/10/21 13:36:06;;;;;;;;;;;18.20;99.90;;;;;;4994831;28;19967;-75
2023/10/21 13:38:35;;;;;;;;;;;18.00;99.90;;;;;;5012060;28;20063;-77
2023/10/21 13:41:04;;;;;;;;;;;17.90;99.90;;;;;;5012471;28;19967;-77
2023/10/21 13:43:33;;;;;;;;;;;17.70;99.90;;;;;;5012865;28;20046;-77
2023/10/21 13:46:03;;;;;;;;;;;17.60;99.90;;;;;;5012557;28;19968;-79
2023/10/21 13:48:33;;;;;;;;;;;17.50;99.90;;;;;;4995121;28;20177;-76
2023/10/21 13:51:06;;;;;;;;;;;17.40;99.90;;;;;;5017987;28;20434;-76
2023/10/21 13:53:35;;;;;;;;;;;17.40;99.90;;;;;;5020080;28;20058;-76
2023/10/21 13:56:06;;;;;;;;;;;17.30;99.90;;;;;;5021132;28;20002;-75
2023/10/21 13:58:34;;;;;;;;;;;17.20;99.90;;;;;;5019505;28;19967;-77
2023/10/21 14:01:06;;;;;;;;;;;17.20;99.90;;;;;;5020504;28;19998;-79
2023/10/21 14:03:34;;;;;;;;;;;17.20;99.90;;;;;;5011447;28;20059;-76
2023/10/21 14:06:05;;;;;;;;;;;17.10;99.90;;;;;;4993610;28;19971;-80
2023/10/21 14:08:34;;;;;;;;;;;17.20;99.90;;;;;;5012649;28;20062;-76
2023/10/21 14:11:06;;;;;;;;;;;17.20;99.90;;;;;;4995484;28;20002;-76
2023/10/21 14:13:34;;;;;;;;;;;17.20;99.90;;;;;;5011868;28;19959;-76
2023/10/21 14:16:05;;;;;;;;;;;17.20;99.90;;;;;;5011700;28;19982;-74
2023/10/21 14:18:33;;;;;;;;;;;17.20;99.90;;;;;;4993840;28;19959;-79
2023/10/21 14:21:02;;;;;;;;;;;17.10;99.90;;;;;;5011455;28;19959;-78
2023/10/21 14:23:31;;;;;;;;;;;17.10;99.90;;;;;;5015443;28;19963;-78
2023/10/21 14:25:59;;;;;;;;;;;17.10;99.90;;;;;;5012529;28;19969;-78
2023/10/21 14:28:28;;;;;;;;;;;17.10;99.90;;;;;;5011356;28;19963;-80
2023/10/21 14:30:57;;;;;;;;;;;17.00;99.90;;;;;;5009781;28;20061;-78
2023/10/21 14:33:27;;;;;;;;;;;17.00;99.90;;;;;;5011496;28;20310;-80
2023/10/21 14:35:56;;;;;;;;;;;17.00;99.90;;;;;;5011189;28;20586;-76
2023/10/21 14:38:26;;;;;;;;;;;17.00;99.90;;;;;;5011094;28;19959;-77
2023/10/21 14:40:55;;;;;;;;;;;16.90;99.90;;;;;;5013646;28;19967;-80